createdAt,value
2023-04-22T00:00:09.230Z,51.28
2023-04-22T00:02:37.427Z,51.28
2023-04-22T00:05:08.545Z,51.25
2023-04-22T00:07:37.560Z,51.36
2023-04-22T00:10:06.064Z,51.38
2023-04-22T00:12:34.615Z,51.37
2023-04-22T00:15:02.423Z,51.48
2023-04-22T00:17:30.259Z,51.43
2023-04-22T00:19:57.936Z,51.10
2023-04-22T00:22:25.647Z,51.40
2023-04-22T00:24:53.292Z,51.36
2023-04-22T00:27:21.179Z,51.47
2023-04-22T00:29:48.935Z,51.51
2023-04-22T00:32:16.682Z,51.45
2023-04-22T00:34:44.527Z,51.56
2023-04-22T00:37:12.305Z,51.53
2023-04-22T00:39:40.355Z,51.69
2023-04-22T00:42:08.590Z,51.53
2023-04-22T00:44:36.790Z,51.51
2023-04-22T00:47:06.596Z,51.46
2023-04-22T00:49:36.422Z,51.61
2023-04-22T00:52:04.285Z,51.46
2023-04-22T00:54:34.472Z,51.59
2023-04-22T00:57:05.331Z,51.45
2023-04-22T00:59:33.346Z,51.58
2023-04-22T01:02:02.855Z,51.58
2023-04-22T01:04:31.390Z,51.76
2023-04-22T01:07:00.738Z,51.82
2023-04-22T01:09:28.903Z,51.80
2023-04-22T01:11:57.490Z,51.78
2023-04-22T01:14:25.915Z,51.84
2023-04-22T01:16:57.690Z,51.89
2023-04-22T01:19:26.740Z,51.84
2023-04-22T01:21:55.927Z,51.77
2023-04-22T01:24:23.702Z,51.90
2023-04-22T01:26:51.527Z,51.91
2023-04-22T01:29:19.721Z,52.00
2023-04-22T01:31:47.987Z,51.92
2023-04-22T01:34:15.872Z,51.87
2023-04-22T01:36:44.953Z,51.95
2023-04-22T01:39:12.854Z,52.01
2023-04-22T01:41:41.866Z,52.14
2023-04-22T01:44:10.553Z,52.16
2023-04-22T01:46:38.623Z,52.18
2023-04-22T01:49:07.358Z,52.24
2023-04-22T01:51:35.347Z,52.24
2023-04-22T01:54:05.938Z,52.31
2023-04-22T01:56:33.955Z,52.32
2023-04-22T01:59:01.994Z,52.20
2023-04-22T02:01:34.363Z,52.39
2023-04-22T02:04:02.400Z,52.41
2023-04-22T02:06:32.588Z,52.22
2023-04-22T02:09:00.554Z,52.43
2023-04-22T02:11:28.702Z,52.23
2023-04-22T02:13:57.538Z,52.51
2023-04-22T02:16:29.380Z,52.54
2023-04-22T02:18:57.382Z,52.56
2023-04-22T02:21:25.648Z,52.46
2023-04-22T02:23:53.592Z,52.43
2023-04-22T02:26:21.601Z,52.50
2023-04-22T02:28:49.600Z,52.53
2023-04-22T02:31:17.668Z,52.57
2023-04-22T02:33:46.984Z,52.33
2023-04-22T02:36:16.418Z,52.43
2023-04-22T02:38:45.025Z,52.36
2023-04-22T02:41:22.638Z,52.48
2023-04-22T02:43:51.701Z,52.61
2023-04-22T02:46:20.193Z,52.52
2023-04-22T02:48:50.834Z,52.66
2023-04-22T02:51:19.410Z,52.80
2023-04-22T02:53:48.662Z,52.77
2023-04-22T02:56:17.086Z,52.89
2023-04-22T02:58:45.698Z,53.00
2023-04-22T03:01:15.042Z,52.82
2023-04-22T03:03:43.669Z,52.84
2023-04-22T03:06:16.811Z,52.74
2023-04-22T03:08:46.592Z,52.87
2023-04-22T03:11:14.627Z,52.70
2023-04-22T03:13:43.447Z,52.71
2023-04-22T03:16:12.520Z,52.73
2023-04-22T03:18:40.806Z,52.79
2023-04-22T03:21:09.077Z,52.63
2023-04-22T03:23:39.523Z,52.85
2023-04-22T03:26:07.817Z,52.84
2023-04-22T03:28:36.731Z,52.59
2023-04-22T03:31:06.334Z,52.67
2023-04-22T03:33:34.604Z,52.81
2023-04-22T03:36:12.583Z,52.77
2023-04-22T03:38:40.984Z,52.67
2023-04-22T03:41:10.377Z,52.69
2023-04-22T03:43:42.560Z,52.65
2023-04-22T03:46:11.450Z,52.58
2023-04-22T03:48:47.225Z,52.88
2023-04-22T03:51:24.830Z,52.68
2023-04-22T03:53:53.203Z,52.97
2023-04-22T03:56:24.846Z,52.99
2023-04-22T03:58:56.502Z,53.07
2023-04-22T04:01:25.653Z,53.04
2023-04-22T04:03:59.133Z,53.19
2023-04-22T04:06:34.989Z,53.36
2023-04-22T04:09:04.253Z,53.45
2023-04-22T04:11:32.803Z,53.54
2023-04-22T04:14:03.613Z,53.45
2023-04-22T04:16:43.290Z,53.67
2023-04-22T04:19:17.477Z,53.75
2023-04-22T04:21:47.180Z,53.87
2023-04-22T04:24:16.148Z,54.00
2023-04-22T04:26:49.966Z,54.06
2023-04-22T04:29:28.125Z,53.93
2023-04-22T04:32:08.152Z,53.99
2023-04-22T04:34:38.109Z,53.93
2023-04-22T04:37:08.657Z,54.09
2023-04-22T04:39:49.015Z,54.05
2023-04-22T04:42:20.953Z,54.05
2023-04-22T04:44:55.040Z,53.99
2023-04-22T04:47:23.468Z,53.97
2023-04-22T04:49:55.147Z,54.01
2023-04-22T04:52:23.848Z,54.07
2023-04-22T04:54:53.845Z,54.13
2023-04-22T04:57:23.265Z,54.02
2023-04-22T04:59:51.889Z,54.08
2023-04-22T05:02:22.505Z,54.25
2023-04-22T05:04:52.855Z,54.37
2023-04-22T05:07:21.855Z,54.35
2023-04-22T05:09:53.209Z,54.34
2023-04-22T05:12:21.733Z,54.41
2023-04-22T05:14:50.413Z,54.57
2023-04-22T05:17:20.691Z,54.52
2023-04-22T05:19:52.092Z,54.58
2023-04-22T05:22:23.207Z,54.47
2023-04-22T05:24:52.065Z,54.59
2023-04-22T05:27:21.136Z,54.45
2023-04-22T05:29:50.002Z,54.48
2023-04-22T05:32:22.732Z,54.51
2023-04-22T05:34:51.113Z,54.60
2023-04-22T05:37:19.512Z,54.59
2023-04-22T05:39:51.204Z,54.57
2023-04-22T05:42:19.812Z,54.68
2023-04-22T05:44:48.251Z,54.74
2023-04-22T05:47:18.577Z,54.61
2023-04-22T05:49:47.369Z,54.74
2023-04-22T05:52:23.382Z,54.83
2023-04-22T05:55:12.078Z,55.01
2023-04-22T05:57:41.037Z,55.17
2023-04-22T06:00:22.042Z,55.35
2023-04-22T06:03:04.663Z,55.47
2023-04-22T06:05:33.674Z,55.70
2023-04-22T06:08:02.010Z,56.00
2023-04-22T06:10:30.444Z,56.21
2023-04-22T06:13:00.224Z,56.21
2023-04-22T06:15:30.455Z,56.41
2023-04-22T06:18:01.209Z,56.27
2023-04-22T06:20:32.799Z,56.35
2023-04-22T06:23:05.487Z,56.39
2023-04-22T06:25:37.640Z,56.30
2023-04-22T06:28:06.178Z,56.29
2023-04-22T06:30:37.828Z,56.29
2023-04-22T06:33:06.547Z,56.40
2023-04-22T06:35:34.723Z,56.13
2023-04-22T06:38:04.877Z,56.28
2023-04-22T06:40:41.030Z,56.42
2023-04-22T06:43:16.491Z,56.68
2023-04-22T06:46:04.239Z,56.85
2023-04-22T06:48:52.623Z,57.06
2023-04-22T06:51:39.322Z,57.23
2023-04-22T06:54:08.903Z,56.98
2023-04-22T06:56:37.190Z,56.75
2023-04-22T06:59:05.483Z,56.49
2023-04-22T07:01:34.240Z,56.26
2023-04-22T07:04:02.527Z,56.08
2023-04-22T07:06:31.132Z,56.08
2023-04-22T07:08:59.426Z,55.86
2023-04-22T07:11:27.977Z,55.69
2023-04-22T07:14:03.969Z,55.68
2023-04-22T07:16:34.046Z,55.79
2023-04-22T07:19:02.604Z,55.44
2023-04-22T07:21:33.211Z,54.99
2023-04-22T07:24:03.437Z,54.88
2023-04-22T07:26:32.824Z,54.23
2023-04-22T07:29:00.976Z,53.89
2023-04-22T07:31:29.346Z,53.40
2023-04-22T07:33:57.768Z,52.99
2023-04-22T07:36:27.226Z,52.91
2023-04-22T07:38:57.231Z,52.63
2023-04-22T07:41:26.119Z,52.32
2023-04-22T07:43:56.149Z,52.20
2023-04-22T07:46:24.428Z,51.88
2023-04-22T07:48:53.398Z,51.64
2023-04-22T07:51:22.373Z,51.35
2023-04-22T07:53:50.761Z,51.15
2023-04-22T07:56:19.213Z,50.91
2023-04-22T07:58:48.895Z,50.48
2023-04-22T08:01:19.993Z,50.21
2023-04-22T08:03:53.614Z,49.99
2023-04-22T08:06:22.300Z,49.65
2023-04-22T08:08:55.147Z,49.40
2023-04-22T08:11:25.239Z,49.17
2023-04-22T08:13:57.420Z,48.80
2023-04-22T08:16:28.236Z,48.84
2023-04-22T08:18:59.349Z,48.76
2023-04-22T08:21:28.559Z,48.42
2023-04-22T08:23:57.777Z,48.18
2023-04-22T08:26:28.839Z,48.12
2023-04-22T08:28:58.219Z,47.97
2023-04-22T08:31:30.269Z,47.74
2023-04-22T08:34:00.408Z,47.55
2023-04-22T08:36:28.880Z,47.30
2023-04-22T08:38:57.881Z,47.34
2023-04-22T08:41:27.065Z,46.94
2023-04-22T08:43:56.735Z,47.01
2023-04-22T08:46:26.962Z,47.04
2023-04-22T08:49:03.872Z,46.77
2023-04-22T08:51:36.027Z,46.35
2023-04-22T08:54:07.163Z,46.33
2023-04-22T08:56:37.646Z,46.64
2023-04-22T08:59:07.591Z,46.25
2023-04-22T09:01:42.180Z,45.99
2023-04-22T09:04:12.198Z,45.94
2023-04-22T09:06:40.564Z,45.66
2023-04-22T09:09:09.865Z,45.38
2023-04-22T09:11:40.269Z,45.39
2023-04-22T09:14:09.080Z,45.40
2023-04-22T09:16:49.366Z,44.84
2023-04-22T09:19:17.971Z,44.91
2023-04-22T09:21:51.418Z,44.80
2023-04-22T09:24:21.721Z,44.75
2023-04-22T09:26:50.308Z,44.27
2023-04-22T09:29:21.127Z,44.47
2023-04-22T09:31:51.280Z,44.18
2023-04-22T09:34:22.663Z,43.86
2023-04-22T09:36:55.113Z,43.90
2023-04-22T09:39:24.618Z,43.41
2023-04-22T09:41:56.812Z,43.47
2023-04-22T09:44:28.441Z,43.15
2023-04-22T09:47:00.733Z,42.96
2023-04-22T09:49:28.958Z,42.79
2023-04-22T09:51:58.710Z,42.89
2023-04-22T09:54:26.921Z,42.47
2023-04-22T09:56:55.009Z,42.45
2023-04-22T09:59:25.728Z,42.11
2023-04-22T10:02:00.928Z,42.02
2023-04-22T10:04:30.690Z,42.02
2023-04-22T10:07:00.458Z,42.10
2023-04-22T10:09:30.357Z,41.81
2023-04-22T10:11:59.419Z,41.42
2023-04-22T10:14:31.210Z,41.35
2023-04-22T10:17:03.614Z,41.34
2023-04-22T10:19:34.245Z,41.25
2023-04-22T10:22:11.228Z,40.77
2023-04-22T10:24:42.228Z,39.80
2023-04-22T10:27:12.863Z,39.39
2023-04-22T10:29:43.862Z,39.95
2023-04-22T10:32:20.019Z,39.33
2023-04-22T10:34:52.121Z,39.62
2023-04-22T10:37:21.828Z,39.54
2023-04-22T10:40:16.537Z,39.02
2023-04-22T10:42:52.892Z,39.56
2023-04-22T10:45:48.447Z,39.07
2023-04-22T10:48:51.139Z,38.23
2023-04-22T10:51:48.163Z,38.08
2023-04-22T10:54:31.509Z,38.10
2023-04-22T10:57:15.655Z,37.15
2023-04-22T10:59:56.137Z,37.75
2023-04-22T11:02:26.669Z,36.71
2023-04-22T11:05:25.862Z,37.05
2023-04-22T11:08:03.441Z,37.13
2023-04-22T11:10:45.124Z,36.68
2023-04-22T11:13:21.934Z,36.20
2023-04-22T11:15:54.243Z,36.03
2023-04-22T11:18:26.996Z,35.74
2023-04-22T11:20:56.895Z,36.02
2023-04-22T11:23:27.960Z,35.85
2023-04-22T11:26:07.624Z,34.65
2023-04-22T11:28:36.835Z,34.63
2023-04-22T11:31:10.763Z,34.39
2023-04-22T11:33:40.104Z,34.24
2023-04-22T11:36:14.006Z,34.04
2023-04-22T11:38:43.466Z,34.20
2023-04-22T11:41:13.053Z,34.65
2023-04-22T11:43:49.592Z,34.32
2023-04-22T11:46:28.625Z,34.25
2023-04-22T11:49:17.096Z,33.07
2023-04-22T11:51:58.324Z,33.13
2023-04-22T11:54:37.848Z,33.46
2023-04-22T11:57:12.019Z,33.69
2023-04-22T11:59:40.615Z,32.98
2023-04-22T12:02:11.000Z,32.65
2023-04-22T12:04:44.634Z,32.74
2023-04-22T12:07:16.223Z,32.95
2023-04-22T12:09:47.621Z,32.45
2023-04-22T12:12:16.068Z,32.59
2023-04-22T12:14:47.384Z,32.45
2023-04-22T12:17:16.913Z,32.82
2023-04-22T12:19:48.821Z,32.71
2023-04-22T12:22:28.956Z,32.51
2023-04-22T12:25:01.989Z,32.21
2023-04-22T12:27:30.247Z,32.23
2023-04-22T12:30:00.066Z,32.04
2023-04-22T12:32:28.697Z,32.31
2023-04-22T12:34:57.256Z,32.34
2023-04-22T12:37:28.374Z,32.25
2023-04-22T12:39:59.160Z,32.09
2023-04-22T12:42:28.370Z,31.87
2023-04-22T12:44:57.323Z,32.25
2023-04-22T12:47:28.499Z,31.89
2023-04-22T12:49:58.981Z,32.70
2023-04-22T12:52:28.465Z,32.52
2023-04-22T12:54:57.780Z,32.08
2023-04-22T12:57:27.534Z,31.85
2023-04-22T12:59:56.167Z,31.82
2023-04-22T13:02:29.256Z,31.72
2023-04-22T13:04:58.234Z,31.66
2023-04-22T13:07:27.508Z,31.53
2023-04-22T13:09:55.752Z,31.37
2023-04-22T13:12:27.650Z,31.18
2023-04-22T13:14:55.816Z,31.10
2023-04-22T13:17:24.937Z,31.26
2023-04-22T13:19:53.357Z,31.07
2023-04-22T13:22:22.364Z,31.09
2023-04-22T13:24:53.767Z,30.92
2023-04-22T13:27:26.210Z,31.13
2023-04-22T13:29:54.806Z,30.63
2023-04-22T13:32:25.646Z,30.93
2023-04-22T13:34:56.280Z,31.09
2023-04-22T13:37:24.855Z,30.92
2023-04-22T13:39:53.332Z,30.87
2023-04-22T13:42:22.213Z,30.17
2023-04-22T13:44:52.673Z,30.07
2023-04-22T13:47:21.056Z,29.76
2023-04-22T13:49:50.293Z,29.70
2023-04-22T13:52:18.522Z,29.55
2023-04-22T13:54:47.515Z,29.83
2023-04-22T13:57:15.735Z,29.57
2023-04-22T13:59:45.189Z,29.88
2023-04-22T14:02:14.575Z,29.64
2023-04-22T14:04:44.344Z,29.54
2023-04-22T14:07:13.590Z,29.25
2023-04-22T14:09:45.724Z,29.27
2023-04-22T14:12:14.417Z,29.28
2023-04-22T14:14:43.195Z,29.49
2023-04-22T14:17:11.963Z,29.72
2023-04-22T14:19:41.040Z,29.56
2023-04-22T14:22:14.694Z,29.53
2023-04-22T14:24:42.768Z,29.53
2023-04-22T14:27:12.557Z,29.39
2023-04-22T14:29:42.497Z,29.25
2023-04-22T14:32:11.342Z,29.56
2023-04-22T14:34:41.410Z,29.49
2023-04-22T14:37:10.330Z,29.93
2023-04-22T14:39:38.828Z,29.70
2023-04-22T14:42:07.441Z,29.76
2023-04-22T14:44:36.146Z,29.65
2023-04-22T14:47:04.603Z,29.67
2023-04-22T14:49:33.509Z,29.36
2023-04-22T14:52:02.443Z,29.67
2023-04-22T14:54:30.663Z,29.69
2023-04-22T14:56:59.598Z,29.61
2023-04-22T14:59:28.337Z,29.40
2023-04-22T15:01:56.802Z,29.47
2023-04-22T15:04:26.767Z,29.72
2023-04-22T15:06:57.995Z,29.54
2023-04-22T15:09:28.033Z,30.33
2023-04-22T15:11:57.434Z,30.08
2023-04-22T15:14:25.611Z,30.27
2023-04-22T15:16:54.408Z,30.27
2023-04-22T15:19:22.663Z,30.54
2023-04-22T15:21:51.117Z,30.73
2023-04-22T15:24:20.753Z,30.81
2023-04-22T15:26:49.230Z,30.73
2023-04-22T15:29:17.517Z,30.35
2023-04-22T15:31:48.184Z,30.57
2023-04-22T15:34:16.870Z,30.23
2023-04-22T15:36:45.028Z,30.40
2023-04-22T15:39:17.333Z,30.48
2023-04-22T15:41:46.338Z,30.41
2023-04-22T15:44:16.624Z,30.24
2023-04-22T15:46:47.105Z,30.58
2023-04-22T15:49:15.750Z,30.62
2023-04-22T15:51:44.645Z,30.70
2023-04-22T15:54:13.867Z,30.93
2023-04-22T15:56:42.361Z,31.07
2023-04-22T15:59:10.855Z,31.20
2023-04-22T16:01:42.272Z,31.65
2023-04-22T16:04:12.589Z,32.04
2023-04-22T16:06:44.428Z,32.09
2023-04-22T16:09:13.571Z,32.79
2023-04-22T16:11:42.138Z,33.09
2023-04-22T16:14:14.986Z,32.97
2023-04-22T16:16:47.115Z,33.25
2023-04-22T16:19:15.865Z,33.45
2023-04-22T16:21:44.466Z,33.41
2023-04-22T16:24:14.955Z,33.46
2023-04-22T16:26:43.620Z,33.35
2023-04-22T16:29:12.270Z,33.03
2023-04-22T16:31:40.777Z,33.06
2023-04-22T16:34:10.801Z,32.89
2023-04-22T16:36:39.417Z,33.34
2023-04-22T16:39:08.148Z,33.32
2023-04-22T16:41:36.700Z,33.05
2023-04-22T16:44:05.144Z,33.14
2023-04-22T16:46:33.676Z,32.87
2023-04-22T16:49:04.508Z,33.31
2023-04-22T16:51:40.049Z,33.29
2023-04-22T16:54:08.181Z,32.94
2023-04-22T16:56:38.047Z,33.03
2023-04-22T16:59:11.629Z,32.96
2023-04-22T17:01:42.457Z,33.13
2023-04-22T17:04:11.812Z,32.83
2023-04-22T17:06:41.364Z,32.79
2023-04-22T17:09:09.988Z,33.08
2023-04-22T17:11:38.604Z,33.13
2023-04-22T17:14:06.719Z,33.57
2023-04-22T17:16:37.437Z,33.42
2023-04-22T17:19:05.599Z,33.79
2023-04-22T17:21:37.557Z,34.22
2023-04-22T17:24:07.391Z,34.07
2023-04-22T17:26:37.878Z,34.06
2023-04-22T17:29:06.708Z,33.92
2023-04-22T17:31:35.552Z,33.94
2023-04-22T17:34:04.257Z,33.74
2023-04-22T17:36:32.553Z,33.61
2023-04-22T17:39:01.375Z,33.43
2023-04-22T17:41:31.029Z,33.31
2023-04-22T17:43:59.465Z,33.48
2023-04-22T17:46:28.069Z,33.52
2023-04-22T17:48:56.806Z,33.23
2023-04-22T17:51:26.977Z,32.67
2023-04-22T17:54:00.038Z,32.94
2023-04-22T17:56:28.798Z,32.89
2023-04-22T17:58:57.043Z,33.08
2023-04-22T18:01:26.141Z,33.13
2023-04-22T18:03:54.670Z,33.04
2023-04-22T18:06:23.350Z,33.02
2023-04-22T18:08:52.056Z,33.04
2023-04-22T18:11:20.156Z,33.23
2023-04-22T18:13:49.457Z,33.23
2023-04-22T18:16:25.129Z,33.34
2023-04-22T18:18:55.512Z,33.39
2023-04-22T18:21:24.056Z,33.67
2023-04-22T18:23:54.581Z,33.92
2023-04-22T18:26:23.476Z,33.89
2023-04-22T18:28:51.705Z,33.89
2023-04-22T18:31:21.498Z,34.21
2023-04-22T18:33:50.417Z,34.17
2023-04-22T18:36:19.188Z,34.32
2023-04-22T18:38:48.783Z,34.26
2023-04-22T18:41:16.987Z,34.48
2023-04-22T18:43:47.275Z,34.37
2023-04-22T18:46:17.478Z,34.38
2023-04-22T18:48:45.774Z,34.30
2023-04-22T18:51:14.764Z,34.59
2023-04-22T18:53:43.705Z,34.69
2023-04-22T18:56:12.214Z,34.62
2023-04-22T18:58:41.897Z,35.00
2023-04-22T19:01:12.528Z,35.26
2023-04-22T19:03:41.275Z,35.31
2023-04-22T19:06:12.384Z,35.17
2023-04-22T19:08:43.625Z,35.53
2023-04-22T19:11:11.733Z,35.43
2023-04-22T19:13:39.990Z,35.65
2023-04-22T19:16:08.200Z,35.50
2023-04-22T19:18:37.602Z,35.93
2023-04-22T19:21:07.565Z,35.54
2023-04-22T19:23:37.904Z,35.86
2023-04-22T19:26:09.799Z,36.00
2023-04-22T19:28:38.106Z,36.08
2023-04-22T19:31:06.476Z,36.37
2023-04-22T19:33:37.109Z,36.71
2023-04-22T19:36:08.788Z,36.78
2023-04-22T19:38:36.946Z,37.13
2023-04-22T19:41:08.935Z,37.23
2023-04-22T19:43:41.213Z,37.48
2023-04-22T19:46:09.486Z,37.75
2023-04-22T19:48:37.934Z,37.92
2023-04-22T19:51:06.861Z,38.14
2023-04-22T19:53:37.285Z,38.22
2023-04-22T19:56:08.527Z,38.51
2023-04-22T19:58:39.432Z,38.54
2023-04-22T20:01:09.908Z,38.56
2023-04-22T20:03:39.715Z,39.01
2023-04-22T20:06:08.726Z,38.98
2023-04-22T20:08:42.225Z,39.02
2023-04-22T20:11:12.245Z,39.16
2023-04-22T20:13:43.439Z,39.48
2023-04-22T20:16:13.187Z,39.73
2023-04-22T20:18:43.203Z,39.85
2023-04-22T20:21:15.594Z,39.81
2023-04-22T20:23:44.299Z,40.05
2023-04-22T20:26:13.385Z,39.88
2023-04-22T20:28:47.678Z,40.01
2023-04-22T20:31:19.039Z,40.17
2023-04-22T20:33:51.323Z,40.20
2023-04-22T20:36:22.548Z,40.06
2023-04-22T20:38:55.069Z,40.00
2023-04-22T20:41:24.961Z,39.98
2023-04-22T20:43:53.502Z,40.14
2023-04-22T20:46:23.953Z,39.96
2023-04-22T20:48:56.498Z,40.21
2023-04-22T20:51:28.602Z,40.23
2023-04-22T20:53:57.554Z,40.16
2023-04-22T20:56:28.403Z,40.25
2023-04-22T20:58:56.659Z,40.24
2023-04-22T21:01:28.032Z,40.42
2023-04-22T21:04:00.650Z,40.18
2023-04-22T21:06:35.468Z,40.45
2023-04-22T21:09:06.805Z,40.42
2023-04-22T21:11:37.245Z,40.57
2023-04-22T21:14:06.096Z,40.52
2023-04-22T21:16:40.548Z,40.37
2023-04-22T21:19:09.874Z,40.39
2023-04-22T21:21:39.383Z,40.54
2023-04-22T21:24:08.544Z,40.64
2023-04-22T21:26:40.579Z,40.66
2023-04-22T21:29:08.873Z,40.81
2023-04-22T21:31:40.179Z,40.65
2023-04-22T21:34:10.148Z,40.68
2023-04-22T21:36:39.014Z,40.58
2023-04-22T21:39:08.562Z,40.78
2023-04-22T21:41:36.965Z,40.78
2023-04-22T21:44:06.745Z,40.84
2023-04-22T21:46:35.421Z,40.98
2023-04-22T21:49:04.549Z,40.90
2023-04-22T21:51:33.720Z,41.03
2023-04-22T21:54:05.472Z,40.97
2023-04-22T21:56:34.397Z,41.11
2023-04-22T21:59:04.900Z,41.13
2023-04-22T22:01:33.486Z,41.25
2023-04-22T22:04:03.704Z,41.13
2023-04-22T22:06:33.538Z,41.25
2023-04-22T22:09:02.379Z,41.39
2023-04-22T22:11:31.557Z,41.30
2023-04-22T22:13:59.747Z,41.37
2023-04-22T22:16:28.379Z,41.73
2023-04-22T22:18:59.446Z,41.60
2023-04-22T22:21:27.691Z,41.75
2023-04-22T22:23:56.360Z,41.87
2023-04-22T22:26:24.654Z,41.93
2023-04-22T22:28:52.677Z,41.99
2023-04-22T22:31:21.624Z,42.04
2023-04-22T22:33:49.685Z,41.99
2023-04-22T22:36:18.554Z,42.12
2023-04-22T22:38:46.823Z,42.42
2023-04-22T22:41:15.241Z,42.35
2023-04-22T22:43:43.751Z,42.62
2023-04-22T22:46:11.734Z,42.30
2023-04-22T22:48:43.578Z,42.54
2023-04-22T22:51:15.452Z,42.83
2023-04-22T22:53:45.206Z,42.86
2023-04-22T22:56:16.024Z,42.62
2023-04-22T22:58:46.119Z,42.93
2023-04-22T23:01:14.694Z,42.76
2023-04-22T23:03:43.542Z,42.97
2023-04-22T23:06:11.823Z,43.03
2023-04-22T23:08:40.218Z,42.92
2023-04-22T23:11:08.202Z,43.24
2023-04-22T23:13:37.138Z,43.28
2023-04-22T23:16:05.644Z,43.51
2023-04-22T23:18:34.086Z,43.49
2023-04-22T23:21:03.147Z,43.54
2023-04-22T23:23:32.075Z,43.71
2023-04-22T23:26:01.064Z,43.80
2023-04-22T23:28:29.988Z,43.84
2023-04-22T23:31:01.346Z,44.08
2023-04-22T23:33:31.573Z,44.16
2023-04-22T23:36:04.450Z,44.41
2023-04-22T23:38:33.310Z,44.58
2023-04-22T23:41:03.125Z,44.92
2023-04-22T23:43:31.646Z,44.93
2023-04-22T23:46:00.825Z,44.97
2023-04-22T23:48:29.262Z,45.10
2023-04-22T23:50:59.031Z,45.42
2023-04-22T23:53:28.379Z,45.54
2023-04-22T23:55:57.385Z,45.63
2023-04-22T23:58:26.567Z,45.57
